createdAt,value
2018-02-20T00:00:53.719Z,37.50
2018-02-20T00:03:21.891Z,40.88
2018-02-20T00:05:50.080Z,45.08
2018-02-20T00:08:18.216Z,44.35
2018-02-20T00:10:47.127Z,41.97
2018-02-20T00:13:15.256Z,47.75
2018-02-20T00:15:43.475Z,47.42
2018-02-20T00:18:11.602Z,45.42
2018-02-20T00:20:39.723Z,45.85
2018-02-20T00:23:07.887Z,45.28
2018-02-20T00:25:36.810Z,47.00
2018-02-20T00:28:04.908Z,45.12
2018-02-20T00:30:33.049Z,48.42
2018-02-20T00:33:01.199Z,46.47
2018-02-20T00:35:29.318Z,47.13
2018-02-20T00:37:57.445Z,46.75
2018-02-20T00:40:25.578Z,45.90
2018-02-20T00:42:53.723Z,43.85
2018-02-20T00:45:21.845Z,47.85
2018-02-20T00:47:50.750Z,50.90
2018-02-20T00:50:18.931Z,46.37
2018-02-20T00:52:47.098Z,45.88
2018-02-20T00:55:15.226Z,48.28
2018-02-20T00:57:43.375Z,50.55
2018-02-20T01:00:11.511Z,47.60
2018-02-20T01:02:40.392Z,46.65
2018-02-20T01:05:09.411Z,49.75
2018-02-20T01:07:37.518Z,48.47
2018-02-20T01:10:05.646Z,51.67
2018-02-20T01:12:33.821Z,50.42
2018-02-20T01:15:02.009Z,47.30
2018-02-20T01:17:30.135Z,59.88
2018-02-20T01:19:58.241Z,52.97
2018-02-20T01:22:26.406Z,52.80
2018-02-20T01:24:54.588Z,47.55
2018-02-20T01:27:22.698Z,48.53
2018-02-20T01:29:50.923Z,47.67
2018-02-20T01:32:19.095Z,50.70
2018-02-20T01:34:47.992Z,52.08
2018-02-20T01:37:16.166Z,48.35
2018-02-20T01:39:44.281Z,50.55
2018-02-20T01:42:12.399Z,51.95
2018-02-20T01:44:41.297Z,52.38
2018-02-20T01:47:09.414Z,48.75
2018-02-20T01:49:37.514Z,51.33
2018-02-20T01:52:05.653Z,50.50
2018-02-20T01:54:33.770Z,52.72
2018-02-20T01:57:02.672Z,53.25
2018-02-20T01:59:30.808Z,53.30
2018-02-20T02:01:58.939Z,60.12
2018-02-20T02:04:27.091Z,57.10
2018-02-20T02:06:55.972Z,54.25
2018-02-20T02:09:24.846Z,54.50
2018-02-20T02:11:53.049Z,54.35
2018-02-20T02:14:21.182Z,55.00
2018-02-20T02:16:49.290Z,57.97
2018-02-20T02:19:18.170Z,59.33
2018-02-20T02:21:47.076Z,62.80
2018-02-20T02:24:15.196Z,64.68
2018-02-20T02:26:43.309Z,59.85
2018-02-20T02:29:12.204Z,67.97
2018-02-20T02:31:41.112Z,62.47
2018-02-20T02:34:09.272Z,65.62
2018-02-20T02:36:37.442Z,59.85
2018-02-20T02:39:06.320Z,57.72
2018-02-20T02:41:35.240Z,58.87
2018-02-20T02:44:03.353Z,56.03
2018-02-20T02:46:31.508Z,53.97
2018-02-20T02:48:59.630Z,61.30
2018-02-20T02:51:28.503Z,61.22
2018-02-20T02:53:56.621Z,62.65
2018-02-20T02:56:24.744Z,55.63
2018-02-20T02:58:54.360Z,60.42
2018-02-20T03:01:22.499Z,57.22
2018-02-20T03:03:50.614Z,61.25
2018-02-20T03:06:18.758Z,59.42
2018-02-20T03:08:46.865Z,53.85
2018-02-20T03:11:15.755Z,56.70
2018-02-20T03:13:44.751Z,57.67
2018-02-20T03:16:12.911Z,55.08
2018-02-20T03:18:41.838Z,60.90
2018-02-20T03:21:09.949Z,61.78
2018-02-20T03:23:38.089Z,59.50
2018-02-20T03:26:06.243Z,60.75
2018-02-20T03:28:34.364Z,62.30
2018-02-20T03:31:02.486Z,62.30
2018-02-20T03:33:30.651Z,64.70
2018-02-20T03:35:59.541Z,62.58
2018-02-20T03:38:27.659Z,65.45
2018-02-20T03:40:55.771Z,71.82
2018-02-20T03:43:24.679Z,63.30
2018-02-20T03:45:52.831Z,62.00
2018-02-20T03:48:21.731Z,61.70
2018-02-20T03:50:50.615Z,64.72
2018-02-20T03:53:19.522Z,64.95
2018-02-20T03:55:47.657Z,58.20
2018-02-20T03:58:15.763Z,63.60
2018-02-20T04:00:44.760Z,60.10
2018-02-20T04:03:12.875Z,62.42
2018-02-20T04:05:41.006Z,63.33
2018-02-20T04:08:09.182Z,63.72
2018-02-20T04:10:37.298Z,62.83
2018-02-20T04:13:05.454Z,63.38
2018-02-20T04:15:33.582Z,63.33
2018-02-20T04:18:02.482Z,63.38
2018-02-20T04:20:30.596Z,61.65
2018-02-20T04:22:58.726Z,66.37
2018-02-20T04:25:26.868Z,61.40
2018-02-20T04:27:54.987Z,63.22
2018-02-20T04:30:23.139Z,61.80
2018-02-20T04:32:51.280Z,60.72
2018-02-20T04:35:19.407Z,64.55
2018-02-20T04:37:47.514Z,59.70
2018-02-20T04:40:15.731Z,60.28
2018-02-20T04:42:44.618Z,65.20
2018-02-20T04:45:13.507Z,61.28
2018-02-20T04:47:42.388Z,59.30
2018-02-20T04:50:11.267Z,62.42
2018-02-20T04:52:39.474Z,58.33
2018-02-20T04:55:07.597Z,60.75
2018-02-20T04:57:35.814Z,58.95
2018-02-20T05:00:03.987Z,62.28
2018-02-20T05:02:32.862Z,59.15
2018-02-20T05:05:01.765Z,60.97
2018-02-20T05:07:29.880Z,63.40
2018-02-20T05:09:58.114Z,67.82
2018-02-20T05:12:27.001Z,65.22
2018-02-20T05:14:55.888Z,63.78
2018-02-20T05:17:24.784Z,64.87
2018-02-20T05:19:53.658Z,65.47
2018-02-20T05:22:22.536Z,69.85
2018-02-20T05:24:50.735Z,64.97
2018-02-20T05:27:18.851Z,65.32
2018-02-20T05:29:47.028Z,73.20
2018-02-20T05:32:15.142Z,69.28
2018-02-20T05:34:44.046Z,70.15
2018-02-20T05:37:12.940Z,70.05
2018-02-20T05:39:41.050Z,67.43
2018-02-20T05:42:09.196Z,71.75
2018-02-20T05:44:37.332Z,63.08
2018-02-20T05:47:05.520Z,65.28
2018-02-20T05:49:34.406Z,67.97
2018-02-20T05:52:03.285Z,66.80
2018-02-20T05:54:31.396Z,61.00
2018-02-20T05:56:59.552Z,67.35
2018-02-20T05:59:27.690Z,66.35
2018-02-20T06:01:55.798Z,71.12
2018-02-20T06:04:23.935Z,69.85
2018-02-20T06:06:52.071Z,71.90
2018-02-20T06:09:20.180Z,62.88
2018-02-20T06:11:49.101Z,63.60
2018-02-20T06:14:17.988Z,59.95
2018-02-20T06:16:46.878Z,65.03
2018-02-20T06:19:15.750Z,65.05
2018-02-20T06:21:44.632Z,63.35
2018-02-20T06:24:12.784Z,65.85
2018-02-20T06:26:40.952Z,65.05
2018-02-20T06:29:09.071Z,57.75
2018-02-20T06:31:37.948Z,61.15
2018-02-20T06:34:06.084Z,65.78
2018-02-20T06:36:34.324Z,61.53
2018-02-20T06:39:02.440Z,60.78
2018-02-20T06:41:30.752Z,64.60
2018-02-20T06:43:59.639Z,68.45
2018-02-20T06:46:28.560Z,68.53
2018-02-20T06:48:56.685Z,66.07
2018-02-20T06:51:24.800Z,70.78
2018-02-20T06:53:52.963Z,67.95
2018-02-20T06:56:21.987Z,68.78
2018-02-20T06:58:50.104Z,72.90
2018-02-20T07:01:18.332Z,73.05
2018-02-20T07:03:46.479Z,68.75
2018-02-20T07:06:14.613Z,67.75
2018-02-20T07:08:42.747Z,65.43
2018-02-20T07:11:10.904Z,66.95
2018-02-20T07:13:39.015Z,73.75
2018-02-20T07:16:07.143Z,67.25
2018-02-20T07:18:35.315Z,71.90
2018-02-20T07:21:04.189Z,65.47
2018-02-20T07:23:33.067Z,72.60
2018-02-20T07:26:01.207Z,69.85
2018-02-20T07:28:29.315Z,66.70
2018-02-20T07:30:57.515Z,63.67
2018-02-20T07:33:25.691Z,66.35
2018-02-20T07:35:53.807Z,69.07
2018-02-20T07:38:22.040Z,71.70
2018-02-20T07:40:50.203Z,67.43
2018-02-20T07:43:18.358Z,76.30
2018-02-20T07:45:47.260Z,67.82
2018-02-20T07:48:16.163Z,68.60
2018-02-20T07:50:44.274Z,71.82
2018-02-20T07:53:12.428Z,72.00
2018-02-20T07:55:40.527Z,65.25
2018-02-20T07:58:08.675Z,65.00
2018-02-20T08:00:36.803Z,64.93
2018-02-20T08:03:05.672Z,66.97
2018-02-20T08:05:33.824Z,64.25
2018-02-20T08:08:01.938Z,82.15
2018-02-20T08:10:30.827Z,69.60
2018-02-20T08:12:59.742Z,70.90
2018-02-20T08:15:27.867Z,96.63
2018-02-20T08:17:56.005Z,68.55
2018-02-20T08:20:24.096Z,69.87
2018-02-20T08:22:52.235Z,66.18
2018-02-20T08:25:20.381Z,69.03
2018-02-20T08:27:48.554Z,68.70
2018-02-20T08:30:17.560Z,59.92
2018-02-20T08:32:45.743Z,63.90
2018-02-20T08:35:13.870Z,64.57
2018-02-20T08:37:41.962Z,63.65
2018-02-20T08:40:10.937Z,68.87
2018-02-20T08:42:39.134Z,63.85
2018-02-20T08:45:08.014Z,79.55
2018-02-20T08:47:36.935Z,70.12
2018-02-20T08:50:05.078Z,73.95
2018-02-20T08:52:33.960Z,98.40
2018-02-20T08:55:02.118Z,65.20
2018-02-20T08:57:30.237Z,59.83
2018-02-20T08:59:58.344Z,63.63
2018-02-20T09:02:26.466Z,61.22
2018-02-20T09:04:55.372Z,62.50
2018-02-20T09:07:23.534Z,62.92
2018-02-20T09:09:52.426Z,62.28
2018-02-20T09:12:20.552Z,61.33
2018-02-20T09:14:48.701Z,62.10
2018-02-20T09:17:16.811Z,70.72
2018-02-20T09:19:44.918Z,69.70
2018-02-20T09:22:13.118Z,78.47
2018-02-20T09:24:41.290Z,70.45
2018-02-20T09:27:09.432Z,66.10
2018-02-20T09:29:37.544Z,60.70
2018-02-20T09:32:05.688Z,60.05
2018-02-20T09:34:33.851Z,63.67
2018-02-20T09:37:02.056Z,60.00
2018-02-20T09:39:30.195Z,55.35
2018-02-20T09:41:59.096Z,57.28
2018-02-20T09:44:27.260Z,56.10
2018-02-20T09:46:56.251Z,57.08
2018-02-20T09:49:25.144Z,58.72
2018-02-20T09:51:54.170Z,63.67
2018-02-20T09:54:22.275Z,71.78
2018-02-20T09:56:50.404Z,93.32
2018-02-20T09:59:18.556Z,66.65
2018-02-20T10:01:46.692Z,55.10
2018-02-20T10:04:14.896Z,55.95
2018-02-20T10:06:43.899Z,64.47
2018-02-20T10:09:12.816Z,60.90
2018-02-20T10:11:40.915Z,64.57
2018-02-20T10:14:09.072Z,63.65
2018-02-20T10:16:37.201Z,59.97
2018-02-20T10:19:05.375Z,63.03
2018-02-20T10:21:33.487Z,69.62
2018-02-20T10:24:01.656Z,69.20
2018-02-20T10:26:29.778Z,58.83
2018-02-20T10:28:58.647Z,53.63
2018-02-20T10:31:26.793Z,59.60
2018-02-20T10:33:54.923Z,61.37
2018-02-20T10:36:23.095Z,53.28
2018-02-20T10:38:51.260Z,61.72
2018-02-20T10:41:20.163Z,60.20
2018-02-20T10:43:48.277Z,58.95
2018-02-20T10:46:16.411Z,57.47
2018-02-20T10:48:44.527Z,58.65
2018-02-20T10:51:12.671Z,56.55
2018-02-20T10:53:40.779Z,55.95
2018-02-20T10:56:08.895Z,57.42
2018-02-20T10:58:37.827Z,55.22
2018-02-20T11:01:05.940Z,56.78
2018-02-20T11:03:34.847Z,59.15
2018-02-20T11:06:03.769Z,61.40
2018-02-20T11:08:31.918Z,56.42
2018-02-20T11:11:00.095Z,51.55
2018-02-20T11:13:28.282Z,57.05
2018-02-20T11:15:56.444Z,55.17
2018-02-20T11:18:24.602Z,52.95
2018-02-20T11:20:53.486Z,53.20
2018-02-20T11:23:21.676Z,53.65
2018-02-20T11:25:50.661Z,52.03
2018-02-20T11:28:18.806Z,51.15
2018-02-20T11:30:47.699Z,53.38
2018-02-20T11:33:15.906Z,54.25
2018-02-20T11:35:44.056Z,55.35
2018-02-20T11:38:12.970Z,57.03
2018-02-20T11:40:41.218Z,58.97
2018-02-20T11:43:09.313Z,55.45
2018-02-20T11:45:37.481Z,54.72
2018-02-20T11:48:06.418Z,55.53
2018-02-20T11:50:34.535Z,58.35
2018-02-20T11:53:03.439Z,55.80
2018-02-20T11:55:32.318Z,54.55
2018-02-20T11:58:01.212Z,59.63
2018-02-20T12:00:30.095Z,58.72
2018-02-20T12:02:58.994Z,57.83
2018-02-20T12:05:27.881Z,57.80
2018-02-20T12:07:56.800Z,58.55
2018-02-20T12:10:24.955Z,59.15
2018-02-20T12:12:53.078Z,54.65
2018-02-20T12:15:21.228Z,56.90
2018-02-20T12:17:49.344Z,56.13
2018-02-20T12:20:17.467Z,60.72
2018-02-20T12:22:45.582Z,55.70
2018-02-20T12:25:13.748Z,60.20
2018-02-20T12:27:41.880Z,57.55
2018-02-20T12:30:10.136Z,55.72
2018-02-20T12:32:38.312Z,54.72
2018-02-20T12:35:06.480Z,57.62
2018-02-20T12:37:35.480Z,62.75
2018-02-20T12:40:03.617Z,62.62
2018-02-20T12:42:31.740Z,59.55
2018-02-20T12:44:59.881Z,57.50
2018-02-20T12:47:28.889Z,55.53
2018-02-20T12:49:57.048Z,55.85
2018-02-20T12:52:25.936Z,59.25
2018-02-20T12:54:54.834Z,59.00
2018-02-20T12:57:23.720Z,59.72
2018-02-20T12:59:52.624Z,53.08
2018-02-20T13:02:20.746Z,63.40
2018-02-20T13:04:48.917Z,56.72
2018-02-20T13:07:17.061Z,53.70
2018-02-20T13:09:45.238Z,70.50
2018-02-20T13:12:13.359Z,58.90
2018-02-20T13:14:42.258Z,57.88
2018-02-20T13:17:11.186Z,51.60
2018-02-20T13:19:39.444Z,51.28
2018-02-20T13:22:07.624Z,48.92
2018-02-20T13:24:35.788Z,54.35
2018-02-20T13:27:03.994Z,54.00
2018-02-20T13:29:32.107Z,51.80
2018-02-20T13:32:00.329Z,54.95
2018-02-20T13:34:28.496Z,57.13
2018-02-20T13:36:56.616Z,63.25
2018-02-20T13:39:24.759Z,59.38
2018-02-20T13:41:52.904Z,58.63
2018-02-20T13:44:21.831Z,52.53
2018-02-20T13:46:49.943Z,54.88
2018-02-20T13:49:18.128Z,51.25
2018-02-20T13:51:47.018Z,51.40
2018-02-20T13:54:16.756Z,54.00
2018-02-20T13:56:44.899Z,55.12
2018-02-20T13:59:13.075Z,58.90
2018-02-20T14:01:41.973Z,55.20
2018-02-20T14:04:10.183Z,49.22
2018-02-20T14:06:38.323Z,55.78
2018-02-20T14:09:06.456Z,51.22
2018-02-20T14:11:34.568Z,54.60
2018-02-20T14:14:02.708Z,52.62
2018-02-20T14:16:30.945Z,55.12
2018-02-20T14:18:59.189Z,50.70
2018-02-20T14:21:27.306Z,53.20
2018-02-20T14:23:55.480Z,52.88
2018-02-20T14:26:23.600Z,54.85
2018-02-20T14:28:51.779Z,59.30
2018-02-20T14:31:20.691Z,57.03
2018-02-20T14:33:48.831Z,62.45
2018-02-20T14:36:17.742Z,63.38
2018-02-20T14:38:45.908Z,66.45
2018-02-20T14:41:14.896Z,61.67
2018-02-20T14:43:43.071Z,60.03
2018-02-20T14:46:11.951Z,52.85
2018-02-20T14:48:40.843Z,53.05
2018-02-20T14:51:09.712Z,48.78
2018-02-20T14:53:37.919Z,55.30
2018-02-20T14:56:06.907Z,57.45
2018-02-20T14:58:35.835Z,53.28
2018-02-20T15:01:04.005Z,52.17
2018-02-20T15:03:32.139Z,52.47
2018-02-20T15:06:00.291Z,53.80
2018-02-20T15:08:28.433Z,56.20
2018-02-20T15:10:56.563Z,55.15
2018-02-20T15:13:24.685Z,53.03
2018-02-20T15:15:52.837Z,55.60
2018-02-20T15:18:21.012Z,58.40
2018-02-20T15:20:49.147Z,62.08
2018-02-20T15:23:18.179Z,57.30
2018-02-20T15:25:46.331Z,57.33
2018-02-20T15:28:14.463Z,60.12
2018-02-20T15:30:42.570Z,61.60
2018-02-20T15:33:11.476Z,60.85
2018-02-20T15:35:39.635Z,59.78
2018-02-20T15:38:07.800Z,64.75
2018-02-20T15:40:35.979Z,68.03
2018-02-20T15:43:04.091Z,60.20
2018-02-20T15:45:32.235Z,62.97
2018-02-20T15:48:00.335Z,59.30
2018-02-20T15:50:28.452Z,58.15
2018-02-20T15:52:57.351Z,57.50
2018-02-20T15:55:26.227Z,57.60
2018-02-20T15:57:55.131Z,58.25
2018-02-20T16:00:24.047Z,53.60
2018-02-20T16:02:52.150Z,55.92
2018-02-20T16:05:20.263Z,53.85
2018-02-20T16:07:49.169Z,58.72
2018-02-20T16:10:17.291Z,56.05
2018-02-20T16:12:46.213Z,56.95
2018-02-20T16:15:15.091Z,59.75
2018-02-20T16:17:43.283Z,57.08
2018-02-20T16:20:12.167Z,58.72
2018-02-20T16:22:41.062Z,62.35
2018-02-20T16:25:09.959Z,59.03
2018-02-20T16:27:38.068Z,61.17
2018-02-20T16:30:06.294Z,63.50
2018-02-20T16:32:35.182Z,59.05
2018-02-20T16:35:04.068Z,59.22
2018-02-20T16:37:33.070Z,65.35
2018-02-20T16:40:01.953Z,61.63
2018-02-20T16:42:30.829Z,57.30
2018-02-20T16:44:58.951Z,58.33
2018-02-20T16:47:27.988Z,58.87
2018-02-20T16:49:56.124Z,58.10
2018-02-20T16:52:24.301Z,52.85
2018-02-20T16:54:52.396Z,55.63
2018-02-20T16:57:20.548Z,54.47
2018-02-20T16:59:48.660Z,58.67
2018-02-20T17:02:16.808Z,55.38
2018-02-20T17:04:44.968Z,50.33
2018-02-20T17:07:13.204Z,53.17
2018-02-20T17:09:42.123Z,48.17
2018-02-20T17:12:10.243Z,53.13
2018-02-20T17:14:38.352Z,55.63
2018-02-20T17:17:06.515Z,50.80
2018-02-20T17:19:34.691Z,49.40
2018-02-20T17:22:02.803Z,53.22
2018-02-20T17:24:30.915Z,49.28
2018-02-20T17:26:59.853Z,50.92
2018-02-20T17:29:28.015Z,50.10
2018-02-20T17:31:56.275Z,46.70
2018-02-20T17:34:24.393Z,46.80
2018-02-20T17:36:52.510Z,46.88
2018-02-20T17:39:21.503Z,46.67
2018-02-20T17:41:50.404Z,48.13
2018-02-20T17:44:18.571Z,43.55
2018-02-20T17:46:46.759Z,47.15
2018-02-20T17:51:44.637Z,46.83
2018-02-20T17:54:12.751Z,45.72
2018-02-20T17:56:40.900Z,47.08
2018-02-20T17:59:09.831Z,47.03
2018-02-20T18:01:37.955Z,47.42
2018-02-20T18:04:06.063Z,48.42
2018-02-20T18:06:34.189Z,45.83
2018-02-20T18:09:03.091Z,48.33
2018-02-20T18:11:31.343Z,49.80
2018-02-20T18:14:00.267Z,47.70
2018-02-20T18:16:29.097Z,46.95
2018-02-20T18:18:58.724Z,49.58
2018-02-20T18:21:27.718Z,48.80
2018-02-20T18:23:56.592Z,50.05
2018-02-20T18:26:24.695Z,46.37
2018-02-20T18:28:52.865Z,48.38
2018-02-20T18:31:21.036Z,49.75
2018-02-20T18:33:49.210Z,50.35
2018-02-20T18:36:17.383Z,51.45
2018-02-20T18:38:45.556Z,51.70
2018-02-20T18:41:13.698Z,50.45
2018-02-20T18:43:41.810Z,54.15
2018-02-20T18:46:09.941Z,51.53
2018-02-20T18:48:38.060Z,49.78
2018-02-20T18:51:06.220Z,56.83
2018-02-20T18:53:35.122Z,51.15
2018-02-20T18:56:03.258Z,50.95
2018-02-20T18:58:31.381Z,53.45
2018-02-20T19:00:59.524Z,56.58
2018-02-20T19:03:28.400Z,54.47
2018-02-20T19:05:57.272Z,51.90
2018-02-20T19:08:25.394Z,54.53
2018-02-20T19:10:53.528Z,50.92
2018-02-20T19:13:22.441Z,55.45
2018-02-20T19:15:51.323Z,53.15
2018-02-20T19:18:20.194Z,53.75
2018-02-20T19:20:49.218Z,54.15
2018-02-20T19:23:17.340Z,52.92
2018-02-20T19:25:45.450Z,50.03
2018-02-20T19:28:14.391Z,55.30
2018-02-20T19:30:42.564Z,53.85
2018-02-20T19:33:10.696Z,52.58
2018-02-20T19:35:38.868Z,55.40
2018-02-20T19:38:07.862Z,56.37
2018-02-20T19:40:36.779Z,56.85
2018-02-20T19:43:04.932Z,56.72
2018-02-20T19:45:33.050Z,53.03
2018-02-20T19:48:01.212Z,58.17
2018-02-20T19:50:29.320Z,54.80
2018-02-20T19:52:58.244Z,56.28
2018-02-20T19:55:26.404Z,52.40
2018-02-20T19:57:55.312Z,52.78
2018-02-20T20:00:23.477Z,56.53
2018-02-20T20:02:51.596Z,53.55
2018-02-20T20:05:19.834Z,53.20
2018-02-20T20:07:47.975Z,58.30
2018-02-20T20:10:16.870Z,59.60
2018-02-20T20:12:45.912Z,55.17
2018-02-20T20:15:13.988Z,56.35
2018-02-20T20:17:42.144Z,52.13
2018-02-20T20:20:10.396Z,58.05
2018-02-20T20:22:39.268Z,56.05
2018-02-20T20:25:08.141Z,59.50
2018-02-20T20:27:37.290Z,58.50
2018-02-20T20:30:05.460Z,59.55
2018-02-20T20:32:33.618Z,57.50
2018-02-20T20:35:01.812Z,57.58
2018-02-20T20:37:30.060Z,59.17
2018-02-20T20:39:58.972Z,60.65
2018-02-20T20:42:27.113Z,57.88
2018-02-20T20:44:56.122Z,59.72
2018-02-20T20:47:24.290Z,59.40
2018-02-20T20:49:52.456Z,58.55
2018-02-20T20:52:21.344Z,61.72
2018-02-20T20:54:50.248Z,58.25
2018-02-20T20:57:19.136Z,56.50
2018-02-20T20:59:47.280Z,59.15
2018-02-20T21:02:15.477Z,62.60
2018-02-20T21:04:44.355Z,56.22
2018-02-20T21:07:13.356Z,63.28
2018-02-20T21:09:42.264Z,60.22
2018-02-20T21:12:10.427Z,58.17
2018-02-20T21:14:38.563Z,57.33
2018-02-20T21:17:06.775Z,61.22
2018-02-20T21:19:34.972Z,57.53
2018-02-20T21:22:03.147Z,58.67
2018-02-20T21:24:31.267Z,60.08
2018-02-20T21:27:00.168Z,60.90
2018-02-20T21:29:29.070Z,57.92
2018-02-20T21:31:57.200Z,58.83
2018-02-20T21:34:25.357Z,56.63
2018-02-20T21:36:53.480Z,60.40
2018-02-20T21:39:22.385Z,58.22
2018-02-20T21:41:50.511Z,60.10
2018-02-20T21:44:18.667Z,60.65
2018-02-20T21:46:46.799Z,62.45
2018-02-20T21:49:14.987Z,61.75
2018-02-20T21:51:43.111Z,63.28
2018-02-20T21:54:11.329Z,60.47
2018-02-20T21:56:39.464Z,59.47
2018-02-20T21:59:07.571Z,59.80
2018-02-20T22:01:35.706Z,60.53
2018-02-20T22:04:03.855Z,60.78
2018-02-20T22:06:31.983Z,59.10
2018-02-20T22:09:00.206Z,63.42
2018-02-20T22:11:28.267Z,63.97
2018-02-20T22:13:56.397Z,63.30
2018-02-20T22:16:25.388Z,62.20
2018-02-20T22:18:54.287Z,65.28
2018-02-20T22:21:22.403Z,67.68
2018-02-20T22:23:50.520Z,61.88
2018-02-20T22:26:19.420Z,62.20
2018-02-20T22:28:47.557Z,61.17
2018-02-20T22:31:15.664Z,58.40
2018-02-20T22:33:44.550Z,61.10
2018-02-20T22:36:13.423Z,65.47
2018-02-20T22:38:42.347Z,64.68
2018-02-20T22:41:10.500Z,60.72
2018-02-20T22:43:39.382Z,63.35
2018-02-20T22:46:08.283Z,67.87
2018-02-20T22:48:36.442Z,61.67
2018-02-20T22:51:05.344Z,65.65
2018-02-20T22:53:34.221Z,64.55
2018-02-20T22:56:03.111Z,65.47
2018-02-20T22:58:32.014Z,62.70
2018-02-20T23:01:00.908Z,63.42
2018-02-20T23:03:29.901Z,66.68
2018-02-20T23:05:58.021Z,61.72
2018-02-20T23:08:26.346Z,61.83
2018-02-20T23:10:54.458Z,64.07
2018-02-20T23:13:22.596Z,64.45
2018-02-20T23:15:51.480Z,66.93
2018-02-20T23:18:19.620Z,68.00
2018-02-20T23:20:49.234Z,65.32
2018-02-20T23:23:17.430Z,69.78
2018-02-20T23:25:46.329Z,64.40
2018-02-20T23:28:14.500Z,65.62
2018-02-20T23:30:42.646Z,62.42
2018-02-20T23:33:10.758Z,67.87
2018-02-20T23:35:38.879Z,68.25
2018-02-20T23:38:07.082Z,66.47
2018-02-20T23:40:35.964Z,69.70
2018-02-20T23:43:04.836Z,66.68
2018-02-20T23:45:33.041Z,68.90
2018-02-20T23:48:01.160Z,68.07
2018-02-20T23:50:29.274Z,71.12
2018-02-20T23:52:58.155Z,68.78
2018-02-20T23:55:27.064Z,71.60
2018-02-20T23:57:55.194Z,66.12
